createdAt,value
2022-12-31T00:01:11.654Z,1.46
2022-12-31T00:02:28.649Z,1.4
2022-12-31T00:03:45.645Z,1.52
2022-12-31T00:05:02.660Z,1.18
2022-12-31T00:06:19.603Z,1.09
2022-12-31T00:08:52.586Z,1.52
2022-12-31T00:10:09.725Z,1.54
2022-12-31T00:11:26.615Z,1.53
2022-12-31T00:12:43.702Z,1.36
2022-12-31T00:14:03.678Z,1.25
2022-12-31T00:15:20.657Z,1.33
2022-12-31T00:16:37.655Z,1.11
2022-12-31T00:17:54.617Z,1.28
2022-12-31T00:19:11.803Z,1.49
2022-12-31T00:20:28.618Z,1.3
2022-12-31T00:21:45.611Z,1.08
2022-12-31T00:23:02.609Z,1.35
2022-12-31T00:24:19.688Z,1.36
2022-12-31T00:25:36.621Z,1.6
2022-12-31T00:26:53.620Z,1.02
2022-12-31T00:28:10.631Z,0.97
2022-12-31T00:29:27.647Z,0.92
2022-12-31T00:30:44.714Z,0.9
2022-12-31T00:32:01.751Z,1.04
2022-12-31T00:33:18.669Z,1.27
2022-12-31T00:34:35.766Z,1.14
2022-12-31T00:35:52.673Z,1.38
2022-12-31T00:37:09.631Z,1.52
2022-12-31T00:38:26.676Z,1.06
2022-12-31T00:39:43.678Z,1.48
2022-12-31T00:41:00.697Z,1.46
2022-12-31T00:42:17.650Z,1.11
2022-12-31T00:43:34.662Z,1.06
2022-12-31T00:44:52.004Z,1.14
2022-12-31T00:46:09.710Z,0.91
2022-12-31T00:47:26.643Z,0.98
2022-12-31T00:48:43.641Z,1.19
2022-12-31T00:50:00.716Z,0.96
2022-12-31T00:51:17.669Z,0.86
2022-12-31T00:52:34.666Z,0.74
2022-12-31T00:53:51.684Z,0.52
2022-12-31T00:55:08.673Z,0.89
2022-12-31T00:56:25.715Z,0.62
2022-12-31T00:57:42.660Z,0.85
2022-12-31T00:58:59.689Z,0.37
2022-12-31T01:00:16.718Z,0.45
2022-12-31T01:01:33.865Z,0.72
2022-12-31T01:02:50.779Z,0.7
2022-12-31T01:04:07.676Z,0.9
2022-12-31T01:05:24.676Z,0.95
2022-12-31T01:06:41.684Z,0.9
2022-12-31T01:07:58.753Z,0.92
2022-12-31T01:09:15.677Z,0.49
2022-12-31T01:10:32.752Z,0.5
2022-12-31T01:11:49.674Z,1.1
2022-12-31T01:13:06.706Z,0.94
2022-12-31T01:14:23.684Z,0.93
2022-12-31T01:15:40.887Z,0.98
2022-12-31T01:16:57.739Z,0.79
2022-12-31T01:18:14.700Z,0.63
2022-12-31T01:19:31.688Z,0.78
2022-12-31T01:20:48.678Z,0.76
2022-12-31T01:22:05.712Z,0.77
2022-12-31T01:23:22.694Z,0.83
2022-12-31T01:24:39.700Z,0.81
2022-12-31T01:25:56.696Z,0.79
2022-12-31T01:27:13.732Z,1.02
2022-12-31T01:28:30.701Z,0.98
2022-12-31T01:29:47.726Z,0.96
2022-12-31T01:31:04.768Z,1.19
2022-12-31T01:32:21.754Z,0.73
2022-12-31T01:33:38.709Z,0.87
2022-12-31T01:34:55.749Z,1.23
2022-12-31T01:36:12.703Z,1.08
2022-12-31T01:37:29.780Z,1.01
2022-12-31T01:38:46.717Z,1.24
2022-12-31T01:40:03.825Z,0.97
2022-12-31T01:41:20.774Z,0.78
2022-12-31T01:42:37.758Z,1.21
2022-12-31T01:43:54.764Z,1.42
2022-12-31T01:45:11.822Z,0.97
2022-12-31T01:46:28.995Z,0.99
2022-12-31T01:47:45.995Z,1.18
2022-12-31T01:49:02.948Z,1.04
2022-12-31T01:50:19.832Z,0.82
2022-12-31T01:51:36.733Z,1.07
2022-12-31T01:52:53.740Z,1.09
2022-12-31T01:54:10.732Z,1.49
2022-12-31T01:55:27.733Z,1.36
2022-12-31T01:56:44.750Z,1
2022-12-31T01:58:01.914Z,1.02
2022-12-31T01:59:18.734Z,0.74
2022-12-31T02:00:35.770Z,0.7
2022-12-31T02:01:52.919Z,1.02
2022-12-31T02:03:09.825Z,0.66
2022-12-31T02:04:26.746Z,0.73
2022-12-31T02:05:43.750Z,0.83
2022-12-31T02:07:00.763Z,1.01
2022-12-31T02:08:17.810Z,0.97
2022-12-31T02:09:34.784Z,0.74
2022-12-31T02:10:51.740Z,0.94
2022-12-31T02:12:08.779Z,0.69
2022-12-31T02:13:26.012Z,0.66
2022-12-31T02:14:42.765Z,0.79
2022-12-31T02:15:59.844Z,0.76
2022-12-31T02:17:16.777Z,1.04
2022-12-31T02:18:33.930Z,0.62
2022-12-31T02:19:50.775Z,0.78
2022-12-31T02:21:07.800Z,0.78
2022-12-31T02:22:24.796Z,0.94
2022-12-31T02:23:41.901Z,0.82
2022-12-31T02:24:58.856Z,0.81
2022-12-31T02:26:15.865Z,0.85
2022-12-31T02:27:32.874Z,0.55
2022-12-31T02:28:49.948Z,1.22
2022-12-31T02:30:07.000Z,1
2022-12-31T02:31:23.956Z,0.79
2022-12-31T02:32:40.872Z,1.12
2022-12-31T02:33:57.972Z,1.06
2022-12-31T02:35:14.878Z,0.77
2022-12-31T02:36:31.890Z,1.17
2022-12-31T02:37:48.896Z,0.91
2022-12-31T02:39:05.967Z,1.07
2022-12-31T02:40:22.902Z,0.75
2022-12-31T02:41:39.896Z,1
2022-12-31T02:42:56.899Z,1.1
2022-12-31T02:44:13.926Z,0.73
2022-12-31T02:45:30.923Z,0.86
2022-12-31T02:46:47.960Z,0.9
2022-12-31T02:48:04.933Z,1.42
2022-12-31T02:49:21.963Z,0.76
2022-12-31T02:50:38.979Z,0.79
2022-12-31T02:51:55.979Z,0.88
2022-12-31T02:53:12.896Z,0.63
2022-12-31T02:54:29.956Z,0.7
2022-12-31T02:55:46.903Z,0.53
2022-12-31T02:57:03.919Z,0.71
2022-12-31T02:58:20.933Z,0.69
2022-12-31T02:59:37.957Z,1.05
2022-12-31T03:00:55.083Z,0.77
2022-12-31T03:02:12.098Z,0.87
2022-12-31T03:03:28.931Z,1.03
2022-12-31T03:04:45.945Z,0.78
2022-12-31T03:06:02.991Z,1.03
2022-12-31T03:07:19.927Z,0.87
2022-12-31T03:08:36.933Z,0.94
2022-12-31T03:09:53.946Z,0.63
2022-12-31T03:11:10.968Z,0.94
2022-12-31T03:12:27.953Z,0.65
2022-12-31T03:13:44.935Z,0.59
2022-12-31T03:15:01.948Z,0.88
2022-12-31T03:16:19.098Z,0.84
2022-12-31T03:17:35.939Z,1.06
2022-12-31T03:18:52.973Z,1.04
2022-12-31T03:20:10.099Z,0.84
2022-12-31T03:21:27.018Z,0.72
2022-12-31T03:22:43.943Z,0.75
2022-12-31T03:24:00.967Z,0.65
2022-12-31T03:25:17.995Z,0.75
2022-12-31T03:26:34.997Z,0.45
2022-12-31T03:27:52.023Z,0.65
2022-12-31T03:29:08.960Z,0.73
2022-12-31T03:30:26.050Z,0.73
2022-12-31T03:31:42.969Z,0.48
2022-12-31T03:32:59.995Z,0.7
2022-12-31T03:34:16.976Z,0.48
2022-12-31T03:35:34.009Z,0.56
2022-12-31T03:36:50.978Z,0.72
2022-12-31T03:38:08.038Z,0.78
2022-12-31T03:39:24.965Z,0.57
2022-12-31T03:40:41.997Z,1
2022-12-31T03:41:58.980Z,1.02
2022-12-31T03:43:16.077Z,0.78
2022-12-31T03:44:32.968Z,1
2022-12-31T03:45:50.018Z,0.74
2022-12-31T03:47:06.964Z,0.83
2022-12-31T03:48:24.025Z,0.92
2022-12-31T03:49:40.978Z,0.6
2022-12-31T03:50:58.054Z,0.85
2022-12-31T03:52:15.016Z,0.67
2022-12-31T03:53:31.997Z,0.6
2022-12-31T03:54:48.981Z,0.72
2022-12-31T03:56:06.040Z,0.96
2022-12-31T03:57:22.991Z,0.83
2022-12-31T03:58:40.036Z,0.89
2022-12-31T03:59:57.022Z,1.03
2022-12-31T04:01:14.124Z,1.03
2022-12-31T04:02:31.195Z,1.13
2022-12-31T04:03:48.025Z,0.9
2022-12-31T04:05:05.036Z,1.05
2022-12-31T04:06:22.110Z,1.01
2022-12-31T04:07:39.044Z,0.92
2022-12-31T04:08:56.077Z,0.97
2022-12-31T04:10:13.022Z,0.75
2022-12-31T04:11:30.010Z,0.83
2022-12-31T04:12:47.080Z,0.73
2022-12-31T04:14:04.050Z,0.34
2022-12-31T04:15:21.023Z,0.41
2022-12-31T04:16:38.049Z,0.28
2022-12-31T04:17:55.086Z,0.45
2022-12-31T04:19:12.058Z,0.34
2022-12-31T04:20:29.018Z,0.44
2022-12-31T04:21:46.043Z,0.56
2022-12-31T04:23:03.088Z,0.74
2022-12-31T04:24:20.048Z,0.89
2022-12-31T04:25:37.055Z,1.01
2022-12-31T04:26:54.077Z,0.69
2022-12-31T04:28:11.052Z,0.93
2022-12-31T04:29:28.062Z,0.93
2022-12-31T04:30:45.125Z,0.95
2022-12-31T04:32:02.100Z,1.25
2022-12-31T04:33:19.083Z,0.97
2022-12-31T04:34:36.054Z,0.96
2022-12-31T04:35:53.091Z,1.1
2022-12-31T04:37:10.302Z,1.09
2022-12-31T04:38:27.082Z,1.01
2022-12-31T04:39:44.046Z,0.84
2022-12-31T04:41:01.064Z,1.37
2022-12-31T04:42:18.084Z,1.13
2022-12-31T04:43:35.080Z,1.05
2022-12-31T04:44:51.687Z,1.15
2022-12-31T04:46:08.404Z,0.95
2022-12-31T04:47:25.965Z,1.36
2022-12-31T04:48:42.422Z,1.91
2022-12-31T04:50:00.123Z,1.32
2022-12-31T04:51:16.968Z,1.2
2022-12-31T04:52:38.707Z,1.24
2022-12-31T04:53:51.036Z,1.24
2022-12-31T04:55:07.982Z,1.13
2022-12-31T04:56:25.099Z,1.06
2022-12-31T04:57:41.969Z,1.46
2022-12-31T04:58:59.049Z,1.34
2022-12-31T05:00:16.032Z,1.64
2022-12-31T05:01:33.270Z,1.78
2022-12-31T05:02:50.236Z,1.42
2022-12-31T05:04:08.086Z,1.67
2022-12-31T05:05:24.017Z,2.08
2022-12-31T05:06:41.013Z,2.12
2022-12-31T05:07:58.045Z,2.37
2022-12-31T05:09:15.027Z,2.36
2022-12-31T05:10:32.133Z,1.08
2022-12-31T05:11:49.034Z,1.36
2022-12-31T05:13:06.074Z,1.33
2022-12-31T05:14:23.000Z,1.3
2022-12-31T05:15:40.071Z,2.02
2022-12-31T05:16:57.048Z,1.79
2022-12-31T05:18:14.061Z,1.4
2022-12-31T05:19:31.194Z,1.27
2022-12-31T05:20:48.044Z,1.39
2022-12-31T05:22:05.034Z,1.27
2022-12-31T05:23:22.065Z,1.46
2022-12-31T05:24:39.073Z,1.17
2022-12-31T05:25:56.070Z,1.33
2022-12-31T05:27:13.019Z,1.7
2022-12-31T05:28:30.061Z,1.38
2022-12-31T05:29:47.114Z,1.08
2022-12-31T05:31:04.115Z,1.99
2022-12-31T05:32:21.017Z,1.51
2022-12-31T05:33:38.020Z,1.43
2022-12-31T05:34:55.065Z,1.07
2022-12-31T05:36:12.054Z,1.27
2022-12-31T05:37:29.045Z,1.47
2022-12-31T05:38:46.137Z,1.54
2022-12-31T05:40:03.123Z,1.02
2022-12-31T05:41:20.042Z,1.34
2022-12-31T05:42:37.046Z,1.14
2022-12-31T05:43:54.111Z,1.18
2022-12-31T05:45:11.080Z,0.96
2022-12-31T05:46:28.098Z,1.05
2022-12-31T05:47:45.063Z,1
2022-12-31T05:49:02.091Z,0.91
2022-12-31T05:50:19.101Z,0.86
2022-12-31T05:51:36.054Z,1.13
2022-12-31T05:52:53.062Z,0.92
2022-12-31T05:54:10.104Z,0.92
2022-12-31T05:55:27.078Z,0.85
2022-12-31T05:56:44.079Z,0.77
2022-12-31T05:58:01.085Z,1.04
2022-12-31T05:59:18.115Z,0.87
2022-12-31T06:00:35.102Z,0.75
2022-12-31T06:01:52.092Z,0.89
2022-12-31T06:03:09.160Z,0.83
2022-12-31T06:04:26.147Z,0.8
2022-12-31T06:05:43.077Z,0.76
2022-12-31T06:07:00.107Z,0.7
2022-12-31T06:08:17.079Z,1.21
2022-12-31T06:09:34.126Z,1.11
2022-12-31T06:10:51.088Z,0.97
2022-12-31T06:12:08.090Z,1.11
2022-12-31T06:13:25.139Z,1.01
2022-12-31T06:14:45.519Z,0.88
2022-12-31T06:15:59.129Z,1.46
2022-12-31T06:17:16.104Z,1.52
2022-12-31T06:18:33.111Z,1.16
2022-12-31T06:19:50.167Z,0.9
2022-12-31T06:21:07.149Z,1.49
2022-12-31T06:22:24.082Z,0.68
2022-12-31T06:23:41.124Z,0.67
2022-12-31T06:24:58.810Z,0.76
2022-12-31T06:26:16.114Z,0.75
2022-12-31T06:27:33.097Z,0.7
2022-12-31T06:28:50.101Z,0.71
2022-12-31T06:30:07.285Z,0.87
2022-12-31T06:31:24.212Z,0.7
2022-12-31T06:32:41.132Z,0.88
2022-12-31T06:33:58.106Z,0.69
2022-12-31T06:35:15.209Z,0.76
2022-12-31T06:36:32.155Z,0.89
2022-12-31T06:37:49.169Z,0.93
2022-12-31T06:39:06.111Z,1.03
2022-12-31T06:40:23.249Z,0.9
2022-12-31T06:41:40.158Z,0.86
2022-12-31T06:43:00.019Z,0.91
2022-12-31T06:44:14.184Z,0.84
2022-12-31T06:45:31.188Z,0.66
2022-12-31T06:46:48.203Z,1.11
2022-12-31T06:48:05.339Z,1.26
2022-12-31T06:49:22.170Z,1.11
2022-12-31T06:50:39.146Z,1.04
2022-12-31T06:51:56.183Z,1.01
2022-12-31T06:53:13.137Z,0.99
2022-12-31T06:54:30.239Z,1.07
2022-12-31T06:55:47.168Z,0.96
2022-12-31T06:57:04.406Z,0.67
2022-12-31T06:58:21.167Z,1.1
2022-12-31T06:59:38.307Z,1.04
2022-12-31T07:00:55.208Z,0.82
2022-12-31T07:02:12.260Z,1.19
2022-12-31T07:03:29.176Z,1.07
2022-12-31T07:04:46.189Z,1.09
2022-12-31T07:06:03.221Z,0.86
2022-12-31T07:07:20.171Z,0.85
2022-12-31T07:08:37.178Z,1.06
2022-12-31T07:09:54.206Z,0.9
2022-12-31T07:11:11.204Z,1.14
2022-12-31T07:12:28.169Z,0.79
2022-12-31T07:13:45.164Z,0.97
2022-12-31T07:15:02.389Z,0.76
2022-12-31T07:16:19.227Z,0.76
2022-12-31T07:17:36.237Z,1.44
2022-12-31T07:18:53.197Z,0.99
2022-12-31T07:20:10.442Z,1.04
2022-12-31T07:21:27.193Z,1.04
2022-12-31T07:22:44.215Z,1.17
2022-12-31T07:24:01.185Z,1.23
2022-12-31T07:25:18.240Z,1.03
2022-12-31T07:26:35.239Z,1.14
2022-12-31T07:27:52.320Z,1.07
2022-12-31T07:29:09.234Z,1.21
2022-12-31T07:30:26.456Z,0.84
2022-12-31T07:31:43.354Z,1.09
2022-12-31T07:33:00.431Z,1.06
2022-12-31T07:34:17.481Z,1.44
2022-12-31T07:35:35.365Z,0.98
2022-12-31T07:36:51.592Z,1.3
2022-12-31T07:38:09.614Z,1.57
2022-12-31T07:39:27.438Z,1.34
2022-12-31T07:40:44.463Z,1.76
2022-12-31T07:42:01.515Z,1.1
2022-12-31T07:43:18.544Z,1.3
2022-12-31T07:44:36.446Z,1.15
2022-12-31T07:45:53.610Z,1.53
2022-12-31T07:47:11.579Z,0.94
2022-12-31T07:48:29.292Z,1.23
2022-12-31T07:49:46.259Z,1.01
2022-12-31T07:51:03.340Z,1.2
2022-12-31T07:52:23.924Z,1.06
2022-12-31T07:53:58.718Z,1.18
2022-12-31T07:55:15.257Z,1.44
2022-12-31T07:56:32.414Z,0.88
2022-12-31T07:57:49.295Z,1.71
2022-12-31T07:59:06.258Z,1.44
2022-12-31T08:00:23.438Z,0.77
2022-12-31T08:01:40.393Z,0.95
2022-12-31T08:02:57.373Z,1.18
2022-12-31T08:04:14.371Z,0.9
2022-12-31T08:05:31.272Z,0.87
2022-12-31T08:06:48.341Z,0.93
2022-12-31T08:08:05.249Z,0.79
2022-12-31T08:09:22.305Z,0.99
2022-12-31T08:10:39.293Z,0.86
2022-12-31T08:11:56.283Z,1.01
2022-12-31T08:13:13.425Z,1.41
2022-12-31T08:14:30.270Z,0.91
2022-12-31T08:15:47.522Z,0.9
2022-12-31T08:17:04.526Z,1.25
2022-12-31T08:18:21.359Z,0.83
2022-12-31T08:19:38.290Z,1.18
2022-12-31T08:20:55.303Z,1.16
2022-12-31T08:22:12.341Z,1.25
2022-12-31T08:23:29.282Z,0.77
2022-12-31T08:24:46.396Z,1
2022-12-31T08:26:03.286Z,0.71
2022-12-31T08:27:20.287Z,0.95
2022-12-31T08:28:37.365Z,0.87
2022-12-31T08:29:54.327Z,0.83
2022-12-31T08:31:11.413Z,0.51
2022-12-31T08:32:28.415Z,1.09
2022-12-31T08:33:45.362Z,0.89
2022-12-31T08:35:02.362Z,0.56
2022-12-31T08:36:19.344Z,1.5
2022-12-31T08:37:36.342Z,1.2
2022-12-31T08:38:53.407Z,1.36
2022-12-31T08:40:10.394Z,1.11
2022-12-31T08:41:27.324Z,0.82
2022-12-31T08:42:44.525Z,1.11
2022-12-31T08:44:01.406Z,1.23
2022-12-31T08:45:18.923Z,1.2
2022-12-31T08:46:36.366Z,1.22
2022-12-31T08:47:58.080Z,1.61
2022-12-31T08:49:11.332Z,1.44
2022-12-31T08:50:28.347Z,2.01
2022-12-31T08:51:45.354Z,1.3
2022-12-31T08:53:02.531Z,1.88
2022-12-31T08:54:19.328Z,1.59
2022-12-31T08:55:36.329Z,1.58
2022-12-31T08:56:53.437Z,1.79
2022-12-31T08:58:10.363Z,1.55
2022-12-31T08:59:27.378Z,2.04
2022-12-31T09:00:44.381Z,1.9
2022-12-31T09:02:01.586Z,1.53
2022-12-31T09:03:18.395Z,2.25
2022-12-31T09:04:35.469Z,1.65
2022-12-31T09:05:52.343Z,1.33
2022-12-31T09:07:09.373Z,1.51
2022-12-31T09:08:26.460Z,2.06
2022-12-31T09:09:43.386Z,1.66
2022-12-31T09:11:00.379Z,1.87
2022-12-31T09:12:17.335Z,1.16
2022-12-31T09:13:34.378Z,1.62
2022-12-31T09:14:51.371Z,1.84
2022-12-31T09:16:08.389Z,1.63
2022-12-31T09:17:25.445Z,1.94
2022-12-31T09:18:42.408Z,1.84
2022-12-31T09:19:59.391Z,1.49
2022-12-31T09:21:16.427Z,1.97
2022-12-31T09:22:33.408Z,1.3
2022-12-31T09:23:50.439Z,1.99
2022-12-31T09:25:07.384Z,1.38
2022-12-31T09:26:24.390Z,1.87
2022-12-31T09:27:41.403Z,1.27
2022-12-31T09:28:58.393Z,1.36
2022-12-31T09:30:15.659Z,1.2
2022-12-31T09:31:32.416Z,0.96
2022-12-31T09:32:50.320Z,1.13
2022-12-31T09:34:06.399Z,1.45
2022-12-31T09:35:23.447Z,2.17
2022-12-31T09:36:40.476Z,1.26
2022-12-31T09:37:57.380Z,1.24
2022-12-31T09:39:14.376Z,1.23
2022-12-31T09:40:31.438Z,1.29
2022-12-31T09:41:48.384Z,1.62
2022-12-31T09:43:05.404Z,1.43
2022-12-31T09:44:22.398Z,1.04
2022-12-31T09:45:39.591Z,1.15
2022-12-31T09:46:56.401Z,1.58
2022-12-31T09:48:13.397Z,1.38
2022-12-31T09:49:30.397Z,0.72
2022-12-31T09:50:47.656Z,1.47
2022-12-31T09:52:04.491Z,1.09
2022-12-31T09:53:21.428Z,0.89
2022-12-31T09:54:38.406Z,1.45
2022-12-31T09:55:55.474Z,1.4
2022-12-31T09:57:12.460Z,1.05
2022-12-31T09:58:29.471Z,1.52
2022-12-31T09:59:46.441Z,0.86
2022-12-31T10:01:03.612Z,2.88
2022-12-31T10:02:20.575Z,1.21
2022-12-31T10:03:37.467Z,1.28
2022-12-31T10:04:54.446Z,1.43
2022-12-31T10:06:11.426Z,1.29
2022-12-31T10:07:28.529Z,0.95
2022-12-31T10:08:45.463Z,1.11
2022-12-31T10:10:02.578Z,1.4
2022-12-31T10:11:19.459Z,1.26
2022-12-31T10:12:36.469Z,0.78
2022-12-31T10:13:53.417Z,1.31
2022-12-31T10:15:10.549Z,1.1
2022-12-31T10:16:27.566Z,1.41
2022-12-31T10:17:44.473Z,1.64
2022-12-31T10:19:01.464Z,1.3
2022-12-31T10:20:18.573Z,0.96
2022-12-31T10:21:35.477Z,1.62
2022-12-31T10:22:52.450Z,1.25
2022-12-31T10:24:09.500Z,0.97
2022-12-31T10:25:37.663Z,1
2022-12-31T10:26:45.346Z,1.74
2022-12-31T10:28:00.469Z,1.43
2022-12-31T10:29:17.501Z,1.51
2022-12-31T10:30:34.503Z,2.21
2022-12-31T10:31:51.481Z,2.42
2022-12-31T10:33:08.518Z,1.3
2022-12-31T10:34:25.510Z,2.08
2022-12-31T10:35:42.510Z,1.72
2022-12-31T10:36:59.496Z,2.24
2022-12-31T10:38:16.462Z,2.83
2022-12-31T10:39:33.507Z,1.98
2022-12-31T10:40:50.461Z,1.51
2022-12-31T10:42:07.482Z,1.1
2022-12-31T10:43:24.496Z,1.46
2022-12-31T10:44:41.537Z,1.99
2022-12-31T10:45:58.592Z,1.94
2022-12-31T10:47:15.586Z,1.46
2022-12-31T10:48:32.501Z,2.14
2022-12-31T10:49:49.493Z,1.56
2022-12-31T10:51:06.513Z,2.78
2022-12-31T10:52:23.512Z,1.78
2022-12-31T10:53:40.486Z,2.3
2022-12-31T10:54:57.520Z,2.87
2022-12-31T10:56:14.589Z,2.59
2022-12-31T10:57:31.514Z,1.88
2022-12-31T10:58:48.517Z,2.93
2022-12-31T11:00:05.671Z,2.76
2022-12-31T11:01:22.731Z,1.51
2022-12-31T11:02:39.654Z,1.41
2022-12-31T11:03:56.533Z,2.01
2022-12-31T11:05:13.534Z,1.96
2022-12-31T11:06:30.612Z,1.58
2022-12-31T11:07:47.558Z,2.27
2022-12-31T11:09:04.530Z,2.49
2022-12-31T11:10:21.514Z,2.06
2022-12-31T11:11:38.521Z,2.23
2022-12-31T11:12:55.557Z,2.1
2022-12-31T11:14:12.592Z,1.51
2022-12-31T11:15:29.607Z,1.33
2022-12-31T11:16:46.613Z,1.79
2022-12-31T11:18:04.326Z,1.49
2022-12-31T11:19:21.716Z,2.67
2022-12-31T11:20:38.554Z,2.23
2022-12-31T11:21:55.548Z,1.77
2022-12-31T11:23:12.644Z,2.03
2022-12-31T11:24:29.564Z,2.34
2022-12-31T11:25:47.040Z,2.33
2022-12-31T11:27:04.639Z,1.99
2022-12-31T11:28:21.623Z,2.12
2022-12-31T11:29:38.606Z,3.02
2022-12-31T11:30:55.664Z,2.17
2022-12-31T11:32:12.615Z,1.63
2022-12-31T11:33:29.638Z,2.56
2022-12-31T11:34:46.612Z,2.51
2022-12-31T11:36:03.708Z,2.74
2022-12-31T11:37:20.571Z,1.8
2022-12-31T11:38:37.635Z,2.09
2022-12-31T11:39:54.628Z,2.06
2022-12-31T11:41:11.617Z,1.9
2022-12-31T11:42:28.691Z,3.94
2022-12-31T11:43:45.635Z,2.88
2022-12-31T11:45:02.853Z,1.51
2022-12-31T11:46:19.667Z,1.39
2022-12-31T11:47:44.699Z,2.56
2022-12-31T11:48:53.661Z,2.99
2022-12-31T11:50:10.692Z,2.36
2022-12-31T11:51:27.627Z,2.36
2022-12-31T11:52:44.649Z,2.21
2022-12-31T11:54:01.597Z,2.73
2022-12-31T11:55:18.617Z,2.07
2022-12-31T11:56:35.605Z,1.62
2022-12-31T11:57:52.757Z,2.72
2022-12-31T11:59:12.144Z,4.13
2022-12-31T12:00:26.821Z,2.55
2022-12-31T12:01:43.672Z,3.33
2022-12-31T12:03:00.819Z,2.88
2022-12-31T12:04:17.694Z,3.95
2022-12-31T12:05:34.653Z,3.52
2022-12-31T12:06:51.639Z,2.44
2022-12-31T12:08:08.691Z,3.23
2022-12-31T12:09:25.688Z,4.08
2022-12-31T12:10:42.619Z,4.89
2022-12-31T12:11:59.650Z,2.04
2022-12-31T12:13:16.663Z,1.54
2022-12-31T12:14:33.627Z,3.26
2022-12-31T12:15:50.774Z,3.79
2022-12-31T12:17:07.658Z,4.2
2022-12-31T12:18:24.679Z,3.01
2022-12-31T12:19:41.648Z,2.43
2022-12-31T12:20:58.683Z,3.99
2022-12-31T12:22:15.721Z,3.18
2022-12-31T12:23:32.689Z,2.29
2022-12-31T12:24:49.650Z,2.55
2022-12-31T12:26:06.677Z,3.65
2022-12-31T12:27:23.683Z,3.08
2022-12-31T12:28:44.090Z,2.33
2022-12-31T12:29:57.691Z,2.78
2022-12-31T12:31:14.766Z,2.48
2022-12-31T12:32:31.698Z,1.71
2022-12-31T12:33:48.678Z,2.15
2022-12-31T12:35:05.710Z,2.73
2022-12-31T12:36:22.696Z,2.94
2022-12-31T12:37:39.690Z,2.39
2022-12-31T12:38:56.696Z,2.78
2022-12-31T12:40:13.708Z,2.33
2022-12-31T12:41:30.708Z,1.42
2022-12-31T12:42:47.686Z,2.66
2022-12-31T12:44:04.717Z,2.72
2022-12-31T12:45:21.687Z,2.7
2022-12-31T12:46:39.463Z,3.44
2022-12-31T12:47:55.688Z,2.39
2022-12-31T12:49:12.724Z,2.74
2022-12-31T12:50:29.703Z,2.57
2022-12-31T12:51:46.743Z,4.09
2022-12-31T12:53:03.704Z,2.12
2022-12-31T12:54:20.731Z,1.99
2022-12-31T12:55:37.724Z,4.92
2022-12-31T12:56:54.766Z,2.96
2022-12-31T12:58:15.715Z,3.08
2022-12-31T12:59:28.718Z,3.82
2022-12-31T13:00:45.804Z,3.18
2022-12-31T13:02:03.038Z,3.05
2022-12-31T13:03:19.953Z,2.7
2022-12-31T13:04:36.709Z,1.71
2022-12-31T13:05:53.743Z,2.22
2022-12-31T13:07:10.890Z,2.42
2022-12-31T13:08:27.869Z,2.19
2022-12-31T13:09:44.714Z,2.19
2022-12-31T13:11:01.823Z,2.16
2022-12-31T13:12:18.766Z,1.88
2022-12-31T13:13:35.711Z,2.68
2022-12-31T13:14:52.745Z,2.34
2022-12-31T13:16:09.775Z,2.38
2022-12-31T13:17:26.795Z,2.3
2022-12-31T13:18:43.763Z,2.67
2022-12-31T13:20:00.723Z,2.65
2022-12-31T13:21:17.787Z,2.07
2022-12-31T13:22:34.765Z,2.96
2022-12-31T13:23:51.773Z,2.68
2022-12-31T13:25:08.752Z,1.88
2022-12-31T13:26:25.740Z,1.62
2022-12-31T13:27:42.768Z,2.09
2022-12-31T13:28:59.828Z,2.23
2022-12-31T13:30:16.815Z,1.76
2022-12-31T13:31:33.857Z,1.93
2022-12-31T13:32:50.816Z,1.77
2022-12-31T13:34:07.817Z,1.26
2022-12-31T13:35:24.788Z,1.55
2022-12-31T13:36:41.781Z,2.65
2022-12-31T13:38:03.327Z,1.95
2022-12-31T13:39:15.818Z,3.01
2022-12-31T13:40:32.928Z,2.97
2022-12-31T13:41:49.785Z,3.15
2022-12-31T13:43:06.789Z,2.03
2022-12-31T13:44:23.930Z,2.09
2022-12-31T13:45:40.789Z,1.64
2022-12-31T13:46:57.811Z,3.06
2022-12-31T13:48:14.839Z,1.92
2022-12-31T13:49:31.863Z,2.28
2022-12-31T13:50:48.803Z,1.93
2022-12-31T13:52:05.888Z,1.82
2022-12-31T13:53:22.777Z,3.5
2022-12-31T13:54:39.808Z,1.95
2022-12-31T13:55:57.068Z,2.45
2022-12-31T13:57:13.898Z,1.62
2022-12-31T13:58:30.873Z,3.03
2022-12-31T13:59:47.819Z,2.34
2022-12-31T14:01:04.948Z,1.84
2022-12-31T14:02:21.951Z,2.22
2022-12-31T14:03:38.815Z,1.38
2022-12-31T14:04:55.829Z,2.13
2022-12-31T14:06:13.051Z,1.51
2022-12-31T14:07:35.505Z,2.08
2022-12-31T14:08:46.823Z,1.36
2022-12-31T14:10:04.102Z,1.93
2022-12-31T14:11:20.834Z,1.67
2022-12-31T14:12:38.091Z,2.08
2022-12-31T14:13:54.850Z,2.41
2022-12-31T14:15:11.828Z,1.4
2022-12-31T14:16:28.911Z,2.6
2022-12-31T14:17:45.808Z,2.6
2022-12-31T14:19:02.945Z,1.77
2022-12-31T14:24:10.867Z,2.26
2022-12-31T14:25:27.839Z,2.08
2022-12-31T14:26:44.837Z,1.77
2022-12-31T14:28:01.846Z,2.02
2022-12-31T14:29:18.849Z,1.58
2022-12-31T14:30:36.029Z,2.6
2022-12-31T14:31:52.885Z,2.06
2022-12-31T14:33:09.827Z,2.17
2022-12-31T14:34:27.010Z,2.4
2022-12-31T14:35:43.884Z,2.86
2022-12-31T14:37:00.850Z,1.78
2022-12-31T14:38:17.868Z,2.21
2022-12-31T14:39:34.917Z,2.38
2022-12-31T14:40:51.939Z,2.22
2022-12-31T14:42:08.853Z,1.25
2022-12-31T14:43:25.872Z,2.27
2022-12-31T14:44:42.838Z,1.76
2022-12-31T14:45:59.949Z,2.05
2022-12-31T14:47:16.867Z,3.18
2022-12-31T14:48:33.923Z,2.18
2022-12-31T14:49:50.862Z,1.94
2022-12-31T14:51:07.910Z,3.84
2022-12-31T14:52:24.907Z,3.93
2022-12-31T14:53:41.858Z,3.56
2022-12-31T14:54:58.877Z,3.58
2022-12-31T14:56:15.867Z,3.26
2022-12-31T14:57:42.737Z,2.74
2022-12-31T14:58:49.937Z,3.16
2022-12-31T15:00:06.946Z,2.46
2022-12-31T15:01:23.987Z,2.3
2022-12-31T15:02:40.991Z,2.52
2022-12-31T15:03:57.960Z,2.57
2022-12-31T15:05:14.872Z,3.08
2022-12-31T15:06:32.037Z,3.68
2022-12-31T15:07:48.903Z,3.55
2022-12-31T15:09:08.411Z,2.16
2022-12-31T15:10:23.140Z,3.41
2022-12-31T15:11:39.913Z,3.7
2022-12-31T15:12:56.924Z,2.38
2022-12-31T15:14:13.938Z,3.05
2022-12-31T15:15:30.935Z,4.05
2022-12-31T15:16:47.967Z,2.93
2022-12-31T15:18:04.899Z,2.43
2022-12-31T15:19:21.915Z,2.23
2022-12-31T15:20:38.935Z,2.16
2022-12-31T15:21:55.902Z,2.38
2022-12-31T15:23:12.894Z,2.71
2022-12-31T15:24:29.970Z,3.28
2022-12-31T15:25:46.967Z,3.17
2022-12-31T15:27:03.938Z,2.98
2022-12-31T15:28:20.986Z,2.27
2022-12-31T15:29:37.940Z,4.57
2022-12-31T15:30:55.024Z,4.29
2022-12-31T15:32:11.916Z,4.55
2022-12-31T15:33:29.187Z,5.02
2022-12-31T15:34:46.135Z,4.73
2022-12-31T15:36:03.158Z,3.85
2022-12-31T15:37:20.057Z,2.48
2022-12-31T15:38:36.989Z,2.63
2022-12-31T15:39:54.237Z,2.72
2022-12-31T15:41:11.117Z,3.58
2022-12-31T15:42:37.569Z,3.38
2022-12-31T15:43:44.959Z,3.53
2022-12-31T15:45:01.990Z,3.06
2022-12-31T15:46:19.118Z,4.05
2022-12-31T15:47:36.008Z,3.25
2022-12-31T15:48:55.533Z,2.77
2022-12-31T15:50:10.022Z,3.27
2022-12-31T15:51:27.012Z,4.12
2022-12-31T15:52:43.986Z,3.89
2022-12-31T15:54:00.971Z,2.02
2022-12-31T15:55:17.990Z,3.31
2022-12-31T15:56:35.223Z,2.58
2022-12-31T15:57:52.051Z,3.82
2022-12-31T15:59:08.955Z,3.34
2022-12-31T16:00:26.158Z,3.28
2022-12-31T16:01:43.144Z,2.76
2022-12-31T16:03:00.245Z,2.94
2022-12-31T16:04:17.044Z,3.29
2022-12-31T16:05:34.057Z,3.44
2022-12-31T16:06:51.469Z,3.18
2022-12-31T16:08:08.046Z,4.52
2022-12-31T16:09:25.186Z,3.93
2022-12-31T16:10:42.046Z,3.73
2022-12-31T16:11:59.144Z,2.86
2022-12-31T16:13:18.963Z,2.05
2022-12-31T16:14:36.071Z,2.3
2022-12-31T16:15:53.059Z,2.41
2022-12-31T16:17:10.073Z,1.99
2022-12-31T16:18:27.002Z,2.32
2022-12-31T16:19:43.994Z,3.24
2022-12-31T16:21:01.019Z,2.43
2022-12-31T16:22:18.037Z,3.47
2022-12-31T16:23:38.848Z,3.22
2022-12-31T16:25:19.808Z,3.98
2022-12-31T16:26:09.019Z,3.58
2022-12-31T16:27:26.102Z,2.5
2022-12-31T16:28:43.090Z,2.01
2022-12-31T16:30:00.122Z,3.06
2022-12-31T16:31:17.067Z,2.51
2022-12-31T16:32:34.182Z,2.31
2022-12-31T16:33:51.022Z,2.7
2022-12-31T16:35:15.094Z,2.74
2022-12-31T16:36:25.015Z,2.4
2022-12-31T16:37:42.147Z,2.62
2022-12-31T16:38:59.061Z,2.32
2022-12-31T16:40:16.012Z,2.86
2022-12-31T16:41:33.065Z,2.59
2022-12-31T16:42:50.091Z,2.34
2022-12-31T16:44:07.040Z,2.97
2022-12-31T16:45:24.044Z,2.04
2022-12-31T16:46:41.129Z,1.6
2022-12-31T16:47:58.109Z,2.87
2022-12-31T16:49:15.057Z,2.75
2022-12-31T16:50:32.067Z,2.37
2022-12-31T16:51:49.062Z,2.46
2022-12-31T16:53:06.198Z,2.42
2022-12-31T16:54:23.115Z,4.18
2022-12-31T16:55:40.121Z,1.83
2022-12-31T16:56:57.067Z,2.85
2022-12-31T16:58:14.135Z,2.81
2022-12-31T16:59:35.072Z,2.11
2022-12-31T17:00:48.080Z,2.4
2022-12-31T17:02:05.315Z,2.61
2022-12-31T17:03:22.228Z,1.28
2022-12-31T17:04:45.163Z,2
2022-12-31T17:05:56.127Z,2.78
2022-12-31T17:07:13.148Z,2.37
2022-12-31T17:08:30.125Z,3.1
2022-12-31T17:09:47.103Z,2.22
2022-12-31T17:11:04.232Z,1.24
2022-12-31T17:12:21.126Z,1.76
2022-12-31T17:13:38.157Z,2.08
2022-12-31T17:14:55.119Z,1.71